Balguntay, China
Current Conditions -  °F | °C
As of 5:30 PM on Thursday 27 Nov 2014 (Local Time) from ZWWW Reporting Station
Light Snow Light Snow  
Wind Chill: 11°   Ceiling: 1500
Heat Index: 18°   Visibility: 1.5mi
Dew Point: 14°   Wind: 4mph
Humidity: 86%   Direction: 330°NNW
Pressure: 29.97"   Gusts: NA
Location:  42.67°N, 86.33°E
Report Text: ZWWW 270930Z 33002MPS 2500 -SN BR BKN015 M08/M10 Q1015 NOSIG
Loading
Personal Weather Stations






























Interactive Weather Map New forecast layout! Learn more

10-Day Weather Forecast

Advertisements
Track Severe Weather on mobile